createdAt,value
2022-07-26T00:00:32.920Z,2
2022-07-26T00:10:33.209Z,2
2022-07-26T00:20:32.644Z,2
2022-07-26T00:30:32.972Z,2
2022-07-26T00:40:33.107Z,2
2022-07-26T00:50:33.560Z,2
2022-07-26T01:00:33.775Z,2
2022-07-26T01:10:33.360Z,2
2022-07-26T01:20:33.801Z,3
2022-07-26T01:30:32.986Z,3
2022-07-26T01:40:33.273Z,2
2022-07-26T01:50:33.839Z,3
2022-07-26T02:00:33.225Z,3
2022-07-26T02:10:33.691Z,3
2022-07-26T02:20:33.636Z,3
2022-07-26T02:30:33.111Z,3
2022-07-26T02:40:33.102Z,3
2022-07-26T02:50:33.847Z,4
2022-07-26T03:00:33.219Z,5
2022-07-26T03:10:33.827Z,6
2022-07-26T03:20:33.302Z,6
2022-07-26T03:30:33.585Z,8
2022-07-26T03:40:32.991Z,9
2022-07-26T03:50:33.294Z,5
2022-07-26T04:00:33.528Z,6
2022-07-26T04:10:32.824Z,6
2022-07-26T04:20:33.132Z,7
2022-07-26T04:30:33.668Z,7
2022-07-26T04:40:33.277Z,7
2022-07-26T04:50:34.896Z,7
2022-07-26T05:00:35.042Z,5
2022-07-26T05:10:33.134Z,4
2022-07-26T05:20:33.357Z,5
2022-07-26T05:30:33.782Z,2
2022-07-26T05:40:33.029Z,3
2022-07-26T05:50:33.512Z,2
2022-07-26T06:00:32.761Z,2
2022-07-26T06:10:33.146Z,3
2022-07-26T06:20:33.385Z,3
2022-07-26T06:30:33.415Z,3
2022-07-26T06:40:32.708Z,3
2022-07-26T06:50:33.466Z,2
2022-07-26T07:00:33.708Z,3
2022-07-26T07:10:33.056Z,2
2022-07-26T07:20:33.072Z,3
2022-07-26T07:30:33.352Z,2
2022-07-26T07:40:33.669Z,2
2022-07-26T07:50:32.996Z,2
2022-07-26T08:00:33.461Z,3
2022-07-26T08:10:32.660Z,2
2022-07-26T08:20:33.083Z,2
2022-07-26T08:30:33.401Z,3
2022-07-26T08:40:33.904Z,2
2022-07-26T08:50:33.249Z,2
2022-07-26T09:00:33.167Z,2
2022-07-26T09:10:38.590Z,2
2022-07-26T09:20:33.487Z,2
2022-07-26T09:30:33.834Z,2
2022-07-26T09:40:33.066Z,2
2022-07-26T09:50:33.368Z,2
2022-07-26T10:00:33.569Z,1
2022-07-26T10:10:32.823Z,2
2022-07-26T10:20:33.303Z,2
2022-07-26T10:30:35.163Z,1
2022-07-26T10:40:33.677Z,1
2022-07-26T10:50:33.596Z,1
2022-07-26T11:00:33.080Z,1
2022-07-26T11:10:33.331Z,1
2022-07-26T11:20:32.994Z,1
2022-07-26T11:30:33.309Z,2
2022-07-26T11:40:33.764Z,2
2022-07-26T11:50:32.981Z,2
2022-07-26T12:00:34.079Z,2
2022-07-26T12:10:33.499Z,2
2022-07-26T12:20:32.878Z,2
2022-07-26T12:30:33.315Z,3
2022-07-26T12:40:33.181Z,2
2022-07-26T12:50:34.020Z,2
2022-07-26T13:00:33.384Z,2
2022-07-26T13:10:34.921Z,2
2022-07-26T13:20:32.783Z,2
2022-07-26T13:30:33.272Z,3
2022-07-26T13:40:33.447Z,2
2022-07-26T13:50:33.758Z,3
2022-07-26T14:00:32.999Z,3
2022-07-26T14:10:33.234Z,2
2022-07-26T14:20:33.769Z,3
2022-07-26T14:30:33.005Z,2
2022-07-26T14:40:33.376Z,2
2022-07-26T14:50:53.173Z,2
2022-07-26T15:00:33.636Z,2
2022-07-26T15:10:32.891Z,1
2022-07-26T15:20:33.147Z,2
2022-07-26T15:30:33.411Z,2
2022-07-26T15:40:33.228Z,1
2022-07-26T15:50:52.254Z,2
2022-07-26T16:00:44.571Z,2
2022-07-26T16:10:34.775Z,2
2022-07-26T16:20:33.593Z,2
2022-07-26T16:30:33.646Z,1
2022-07-26T16:40:32.929Z,1
2022-07-26T16:50:33.319Z,1
2022-07-26T17:00:33.867Z,1
2022-07-26T17:10:33.212Z,1
2022-07-26T17:20:33.719Z,1
2022-07-26T17:30:33.029Z,1
2022-07-26T17:40:33.365Z,1
2022-07-26T17:50:36.976Z,1
2022-07-26T18:00:33.171Z,1
2022-07-26T18:10:33.549Z,1
2022-07-26T18:20:33.041Z,1
2022-07-26T18:30:33.271Z,1
2022-07-26T18:40:33.159Z,1
2022-07-26T18:50:33.874Z,1
2022-07-26T19:00:33.384Z,1
2022-07-26T19:10:33.709Z,1
2022-07-26T19:20:33.145Z,1
2022-07-26T19:30:33.519Z,1
2022-07-26T19:40:33.282Z,1
2022-07-26T19:50:33.615Z,1
2022-07-26T20:00:33.598Z,1
2022-07-26T20:10:33.075Z,1
2022-07-26T20:20:33.449Z,1
2022-07-26T20:30:33.863Z,1
2022-07-26T20:40:33.240Z,1
2022-07-26T20:50:33.242Z,1
2022-07-26T21:00:33.641Z,1
2022-07-26T21:10:33.311Z,1
2022-07-26T21:20:32.876Z,1
2022-07-26T21:30:33.212Z,1
2022-07-26T21:40:33.628Z,1
2022-07-26T21:50:33.258Z,1
2022-07-26T22:00:33.130Z,2
2022-07-26T22:10:33.546Z,1
2022-07-26T22:20:33.265Z,2
2022-07-26T22:30:32.967Z,2
2022-07-26T22:40:33.545Z,2
2022-07-26T22:50:32.985Z,2
2022-07-26T23:00:34.091Z,2
2022-07-26T23:10:33.494Z,2
2022-07-26T23:20:33.567Z,2
2022-07-26T23:30:33.166Z,3
2022-07-26T23:40:33.723Z,3
2022-07-26T23:50:33.177Z,3
